sensor_id;sensor_type;location;lat;lon;timestamp;P1;durP1;ratioP1;P2;durP2;ratioP2
34928;SDS011;21133;48.048;7.724;2023-06-26T00:02:04;4.50;;;4.33;;
34928;SDS011;21133;48.048;7.724;2023-06-26T00:04:30;4.80;;;4.60;;
34928;SDS011;21133;48.048;7.724;2023-06-26T00:06:56;5.10;;;4.80;;
34928;SDS011;21133;48.048;7.724;2023-06-26T00:09:22;4.00;;;3.90;;
34928;SDS011;21133;48.048;7.724;2023-06-26T00:11:48;5.00;;;4.70;;
34928;SDS011;21133;48.048;7.724;2023-06-26T00:14:14;4.10;;;3.90;;
34928;SDS011;21133;48.048;7.724;2023-06-26T00:16:40;4.73;;;4.50;;
34928;SDS011;21133;48.048;7.724;2023-06-26T00:19:07;5.17;;;4.60;;
34928;SDS011;21133;48.048;7.724;2023-06-26T00:21:33;4.00;;;3.90;;
34928;SDS011;21133;48.048;7.724;2023-06-26T00:23:59;5.27;;;4.87;;
34928;SDS011;21133;48.048;7.724;2023-06-26T00:26:25;3.93;;;3.83;;
34928;SDS011;21133;48.048;7.724;2023-06-26T00:28:51;4.57;;;4.23;;
34928;SDS011;21133;48.048;7.724;2023-06-26T00:31:17;5.40;;;5.10;;
34928;SDS011;21133;48.048;7.724;2023-06-26T00:33:43;6.00;;;4.37;;
34928;SDS011;21133;48.048;7.724;2023-06-26T00:36:09;6.13;;;4.90;;
34928;SDS011;21133;48.048;7.724;2023-06-26T00:38:35;4.63;;;4.43;;
34928;SDS011;21133;48.048;7.724;2023-06-26T00:41:01;5.03;;;4.63;;
34928;SDS011;21133;48.048;7.724;2023-06-26T00:43:27;5.27;;;4.80;;
34928;SDS011;21133;48.048;7.724;2023-06-26T00:45:53;7.03;;;6.07;;
34928;SDS011;21133;48.048;7.724;2023-06-26T00:48:19;4.60;;;4.33;;
34928;SDS011;21133;48.048;7.724;2023-06-26T00:50:45;4.83;;;4.63;;
34928;SDS011;21133;48.048;7.724;2023-06-26T00:53:11;4.93;;;4.70;;
34928;SDS011;21133;48.048;7.724;2023-06-26T00:55:37;4.33;;;4.07;;
34928;SDS011;21133;48.048;7.724;2023-06-26T00:58:03;3.77;;;3.67;;
34928;SDS011;21133;48.048;7.724;2023-06-26T01:00:29;5.03;;;3.90;;
34928;SDS011;21133;48.048;7.724;2023-06-26T01:02:55;6.73;;;5.20;;
34928;SDS011;21133;48.048;7.724;2023-06-26T01:05:24;4.03;;;3.83;;
34928;SDS011;21133;48.048;7.724;2023-06-26T01:07:49;4.50;;;4.20;;
34928;SDS011;21133;48.048;7.724;2023-06-26T01:10:16;4.77;;;4.57;;
34928;SDS011;21133;48.048;7.724;2023-06-26T01:12:42;5.27;;;5.07;;
34928;SDS011;21133;48.048;7.724;2023-06-26T01:15:08;4.30;;;4.10;;
34928;SDS011;21133;48.048;7.724;2023-06-26T01:17:36;4.73;;;4.37;;
34928;SDS011;21133;48.048;7.724;2023-06-26T01:20:03;5.43;;;5.20;;
34928;SDS011;21133;48.048;7.724;2023-06-26T01:22:43;4.90;;;4.67;;
34928;SDS011;21133;48.048;7.724;2023-06-26T01:25:18;5.47;;;5.17;;
34928;SDS011;21133;48.048;7.724;2023-06-26T01:27:48;4.70;;;4.50;;
34928;SDS011;21133;48.048;7.724;2023-06-26T01:30:14;6.10;;;4.90;;
34928;SDS011;21133;48.048;7.724;2023-06-26T01:32:42;6.73;;;6.33;;
34928;SDS011;21133;48.048;7.724;2023-06-26T01:35:08;5.60;;;5.20;;
34928;SDS011;21133;48.048;7.724;2023-06-26T01:37:35;5.23;;;5.03;;
34928;SDS011;21133;48.048;7.724;2023-06-26T01:40:01;4.63;;;4.37;;
34928;SDS011;21133;48.048;7.724;2023-06-26T01:42:30;4.27;;;4.07;;
34928;SDS011;21133;48.048;7.724;2023-06-26T01:44:56;6.27;;;4.83;;
34928;SDS011;21133;48.048;7.724;2023-06-26T01:47:23;12.33;;;5.37;;
34928;SDS011;21133;48.048;7.724;2023-06-26T01:49:59;5.23;;;4.93;;
34928;SDS011;21133;48.048;7.724;2023-06-26T01:52:32;6.33;;;5.90;;
34928;SDS011;21133;48.048;7.724;2023-06-26T01:57:45;5.17;;;4.87;;
34928;SDS011;21133;48.048;7.724;2023-06-26T02:00:13;6.30;;;5.77;;
34928;SDS011;21133;48.048;7.724;2023-06-26T02:02:42;4.43;;;4.27;;
34928;SDS011;21133;48.048;7.724;2023-06-26T02:05:08;4.77;;;4.67;;
34928;SDS011;21133;48.048;7.724;2023-06-26T02:07:34;5.53;;;4.90;;
34928;SDS011;21133;48.048;7.724;2023-06-26T02:10:00;5.37;;;5.10;;
34928;SDS011;21133;48.048;7.724;2023-06-26T02:12:26;5.00;;;4.77;;
34928;SDS011;21133;48.048;7.724;2023-06-26T02:14:52;6.83;;;5.00;;
34928;SDS011;21133;48.048;7.724;2023-06-26T02:17:18;5.00;;;4.73;;
34928;SDS011;21133;48.048;7.724;2023-06-26T02:19:44;5.73;;;5.23;;
34928;SDS011;21133;48.048;7.724;2023-06-26T02:22:13;5.30;;;5.13;;
34928;SDS011;21133;48.048;7.724;2023-06-26T02:24:39;5.47;;;5.17;;
34928;SDS011;21133;48.048;7.724;2023-06-26T02:27:05;5.53;;;5.23;;
34928;SDS011;21133;48.048;7.724;2023-06-26T02:29:31;18.57;;;5.27;;
34928;SDS011;21133;48.048;7.724;2023-06-26T02:31:57;5.30;;;5.00;;
34928;SDS011;21133;48.048;7.724;2023-06-26T02:34:23;5.47;;;4.97;;
34928;SDS011;21133;48.048;7.724;2023-06-26T02:36:49;5.20;;;4.80;;
34928;SDS011;21133;48.048;7.724;2023-06-26T02:39:15;5.20;;;5.00;;
34928;SDS011;21133;48.048;7.724;2023-06-26T02:41:41;5.37;;;5.10;;
34928;SDS011;21133;48.048;7.724;2023-06-26T02:44:08;4.13;;;3.93;;
34928;SDS011;21133;48.048;7.724;2023-06-26T02:46:36;5.70;;;5.40;;
34928;SDS011;21133;48.048;7.724;2023-06-26T02:49:02;4.73;;;4.53;;
34928;SDS011;21133;48.048;7.724;2023-06-26T02:51:28;4.60;;;4.20;;
34928;SDS011;21133;48.048;7.724;2023-06-26T02:53:54;5.17;;;4.70;;
34928;SDS011;21133;48.048;7.724;2023-06-26T02:56:20;5.37;;;4.60;;
34928;SDS011;21133;48.048;7.724;2023-06-26T02:58:46;5.03;;;4.73;;
34928;SDS011;21133;48.048;7.724;2023-06-26T03:01:12;5.20;;;5.07;;
34928;SDS011;21133;48.048;7.724;2023-06-26T03:03:38;7.00;;;6.37;;
34928;SDS011;21133;48.048;7.724;2023-06-26T03:06:08;5.90;;;5.57;;
34928;SDS011;21133;48.048;7.724;2023-06-26T03:08:37;7.77;;;7.07;;
34928;SDS011;21133;48.048;7.724;2023-06-26T03:11:04;5.80;;;5.43;;
34928;SDS011;21133;48.048;7.724;2023-06-26T03:13:30;5.60;;;5.13;;
34928;SDS011;21133;48.048;7.724;2023-06-26T03:15:56;5.70;;;5.30;;
34928;SDS011;21133;48.048;7.724;2023-06-26T03:18:22;5.83;;;5.37;;
34928;SDS011;21133;48.048;7.724;2023-06-26T03:20:48;5.10;;;4.80;;
34928;SDS011;21133;48.048;7.724;2023-06-26T03:23:14;7.30;;;5.53;;
34928;SDS011;21133;48.048;7.724;2023-06-26T03:25:40;6.63;;;5.40;;
34928;SDS011;21133;48.048;7.724;2023-06-26T03:28:06;12.63;;;4.53;;
34928;SDS011;21133;48.048;7.724;2023-06-26T03:30:32;8.83;;;5.57;;
34928;SDS011;21133;48.048;7.724;2023-06-26T03:32:58;5.07;;;4.67;;
34928;SDS011;21133;48.048;7.724;2023-06-26T03:35:24;5.90;;;5.40;;
34928;SDS011;21133;48.048;7.724;2023-06-26T03:37:50;5.17;;;4.90;;
34928;SDS011;21133;48.048;7.724;2023-06-26T03:40:16;9.50;;;4.63;;
34928;SDS011;21133;48.048;7.724;2023-06-26T03:42:42;8.13;;;4.43;;
34928;SDS011;21133;48.048;7.724;2023-06-26T03:45:08;7.00;;;4.83;;
34928;SDS011;21133;48.048;7.724;2023-06-26T03:47:34;7.20;;;5.50;;
34928;SDS011;21133;48.048;7.724;2023-06-26T03:50:00;4.87;;;4.63;;
34928;SDS011;21133;48.048;7.724;2023-06-26T03:52:26;11.03;;;5.07;;
34928;SDS011;21133;48.048;7.724;2023-06-26T03:54:52;5.70;;;5.40;;
34928;SDS011;21133;48.048;7.724;2023-06-26T03:57:17;5.80;;;5.40;;
34928;SDS011;21133;48.048;7.724;2023-06-26T03:59:43;6.07;;;5.57;;
34928;SDS011;21133;48.048;7.724;2023-06-26T04:02:09;6.07;;;5.40;;
34928;SDS011;21133;48.048;7.724;2023-06-26T04:04:37;5.43;;;5.03;;
34928;SDS011;21133;48.048;7.724;2023-06-26T04:07:03;5.07;;;4.87;;
34928;SDS011;21133;48.048;7.724;2023-06-26T04:09:29;5.13;;;4.93;;
34928;SDS011;21133;48.048;7.724;2023-06-26T04:11:55;4.70;;;4.50;;
34928;SDS011;21133;48.048;7.724;2023-06-26T04:14:21;8.50;;;5.00;;
34928;SDS011;21133;48.048;7.724;2023-06-26T04:16:47;6.33;;;4.83;;
34928;SDS011;21133;48.048;7.724;2023-06-26T04:19:13;5.87;;;5.37;;
34928;SDS011;21133;48.048;7.724;2023-06-26T04:21:39;5.90;;;5.50;;
34928;SDS011;21133;48.048;7.724;2023-06-26T04:24:05;6.47;;;4.83;;
34928;SDS011;21133;48.048;7.724;2023-06-26T04:26:31;5.40;;;5.10;;
34928;SDS011;21133;48.048;7.724;2023-06-26T04:28:58;5.47;;;5.07;;
34928;SDS011;21133;48.048;7.724;2023-06-26T04:31:24;4.30;;;3.90;;
34928;SDS011;21133;48.048;7.724;2023-06-26T04:33:50;4.17;;;3.97;;
34928;SDS011;21133;48.048;7.724;2023-06-26T04:36:19;6.07;;;5.50;;
34928;SDS011;21133;48.048;7.724;2023-06-26T04:38:45;4.87;;;4.30;;
34928;SDS011;21133;48.048;7.724;2023-06-26T04:41:13;4.90;;;4.70;;
34928;SDS011;21133;48.048;7.724;2023-06-26T04:43:39;4.50;;;4.30;;
34928;SDS011;21133;48.048;7.724;2023-06-26T04:46:05;5.70;;;5.07;;
34928;SDS011;21133;48.048;7.724;2023-06-26T04:48:31;4.97;;;4.67;;
34928;SDS011;21133;48.048;7.724;2023-06-26T04:50:57;6.23;;;5.77;;
34928;SDS011;21133;48.048;7.724;2023-06-26T04:53:24;6.57;;;6.17;;
34928;SDS011;21133;48.048;7.724;2023-06-26T04:55:50;8.10;;;4.60;;
34928;SDS011;21133;48.048;7.724;2023-06-26T04:58:16;8.00;;;7.20;;
34928;SDS011;21133;48.048;7.724;2023-06-26T05:00:42;4.80;;;4.50;;
34928;SDS011;21133;48.048;7.724;2023-06-26T05:03:09;7.33;;;3.97;;
34928;SDS011;21133;48.048;7.724;2023-06-26T05:05:35;9.37;;;5.00;;
34928;SDS011;21133;48.048;7.724;2023-06-26T05:08:12;5.70;;;5.20;;
34928;SDS011;21133;48.048;7.724;2023-06-26T05:10:39;10.80;;;4.93;;
34928;SDS011;21133;48.048;7.724;2023-06-26T05:13:05;8.30;;;6.87;;
34928;SDS011;21133;48.048;7.724;2023-06-26T05:15:31;5.10;;;4.80;;
34928;SDS011;21133;48.048;7.724;2023-06-26T05:17:57;9.13;;;4.40;;
34928;SDS011;21133;48.048;7.724;2023-06-26T05:20:23;5.27;;;4.97;;
34928;SDS011;21133;48.048;7.724;2023-06-26T05:22:49;4.73;;;4.40;;
34928;SDS011;21133;48.048;7.724;2023-06-26T05:25:15;4.77;;;4.57;;
34928;SDS011;21133;48.048;7.724;2023-06-26T05:27:41;4.53;;;4.30;;
34928;SDS011;21133;48.048;7.724;2023-06-26T05:30:07;4.13;;;3.93;;
34928;SDS011;21133;48.048;7.724;2023-06-26T05:32:34;6.00;;;5.57;;
34928;SDS011;21133;48.048;7.724;2023-06-26T05:35:03;5.80;;;5.30;;
34928;SDS011;21133;48.048;7.724;2023-06-26T05:37:30;6.80;;;4.57;;
34928;SDS011;21133;48.048;7.724;2023-06-26T05:39:56;4.50;;;4.40;;
34928;SDS011;21133;48.048;7.724;2023-06-26T05:42:22;5.53;;;5.00;;
34928;SDS011;21133;48.048;7.724;2023-06-26T05:44:48;5.30;;;5.00;;
34928;SDS011;21133;48.048;7.724;2023-06-26T05:47:14;5.90;;;5.23;;
34928;SDS011;21133;48.048;7.724;2023-06-26T05:49:40;5.20;;;5.00;;
34928;SDS011;21133;48.048;7.724;2023-06-26T05:52:06;9.10;;;4.23;;
34928;SDS011;21133;48.048;7.724;2023-06-26T05:54:32;8.40;;;7.80;;
34928;SDS011;21133;48.048;7.724;2023-06-26T05:56:58;5.00;;;4.70;;
34928;SDS011;21133;48.048;7.724;2023-06-26T05:59:25;5.00;;;4.80;;
34928;SDS011;21133;48.048;7.724;2023-06-26T06:01:52;5.90;;;5.50;;
34928;SDS011;21133;48.048;7.724;2023-06-26T06:04:18;6.10;;;5.43;;
34928;SDS011;21133;48.048;7.724;2023-06-26T06:06:44;4.43;;;4.23;;
34928;SDS011;21133;48.048;7.724;2023-06-26T06:09:10;5.80;;;5.37;;
34928;SDS011;21133;48.048;7.724;2023-06-26T06:11:36;8.70;;;5.50;;
34928;SDS011;21133;48.048;7.724;2023-06-26T06:14:02;6.40;;;5.73;;
34928;SDS011;21133;48.048;7.724;2023-06-26T06:16:28;5.07;;;4.77;;
34928;SDS011;21133;48.048;7.724;2023-06-26T06:18:54;5.67;;;5.27;;
34928;SDS011;21133;48.048;7.724;2023-06-26T06:21:21;5.20;;;4.90;;
34928;SDS011;21133;48.048;7.724;2023-06-26T06:23:47;5.93;;;5.00;;
34928;SDS011;21133;48.048;7.724;2023-06-26T06:26:13;10.00;;;5.23;;
34928;SDS011;21133;48.048;7.724;2023-06-26T06:28:39;4.77;;;4.57;;
34928;SDS011;21133;48.048;7.724;2023-06-26T06:31:05;4.83;;;4.63;;
34928;SDS011;21133;48.048;7.724;2023-06-26T06:33:31;5.27;;;4.97;;
34928;SDS011;21133;48.048;7.724;2023-06-26T06:35:58;6.93;;;5.17;;
34928;SDS011;21133;48.048;7.724;2023-06-26T06:38:24;6.03;;;5.63;;
34928;SDS011;21133;48.048;7.724;2023-06-26T06:40:50;5.73;;;5.20;;
34928;SDS011;21133;48.048;7.724;2023-06-26T06:43:16;6.07;;;5.50;;
34928;SDS011;21133;48.048;7.724;2023-06-26T06:45:42;10.20;;;5.20;;
34928;SDS011;21133;48.048;7.724;2023-06-26T06:48:08;7.33;;;5.43;;
34928;SDS011;21133;48.048;7.724;2023-06-26T06:50:34;6.00;;;5.50;;
34928;SDS011;21133;48.048;7.724;2023-06-26T06:53:00;5.87;;;5.47;;
34928;SDS011;21133;48.048;7.724;2023-06-26T06:55:26;4.80;;;4.50;;
34928;SDS011;21133;48.048;7.724;2023-06-26T06:57:52;5.87;;;5.37;;
34928;SDS011;21133;48.048;7.724;2023-06-26T07:00:18;7.33;;;4.60;;
34928;SDS011;21133;48.048;7.724;2023-06-26T07:02:45;5.57;;;4.93;;
34928;SDS011;21133;48.048;7.724;2023-06-26T07:05:11;5.37;;;4.83;;
34928;SDS011;21133;48.048;7.724;2023-06-26T07:07:38;5.23;;;4.93;;
34928;SDS011;21133;48.048;7.724;2023-06-26T07:10:05;4.63;;;4.43;;
34928;SDS011;21133;48.048;7.724;2023-06-26T07:12:31;7.00;;;4.83;;
34928;SDS011;21133;48.048;7.724;2023-06-26T07:14:58;9.83;;;4.97;;
34928;SDS011;21133;48.048;7.724;2023-06-26T07:17:24;5.33;;;4.93;;
34928;SDS011;21133;48.048;7.724;2023-06-26T07:19:50;6.63;;;4.57;;
34928;SDS011;21133;48.048;7.724;2023-06-26T07:22:16;6.30;;;5.43;;
34928;SDS011;21133;48.048;7.724;2023-06-26T07:24:43;5.07;;;4.67;;
34928;SDS011;21133;48.048;7.724;2023-06-26T07:27:09;7.07;;;5.93;;
34928;SDS011;21133;48.048;7.724;2023-06-26T07:29:35;8.17;;;4.43;;
34928;SDS011;21133;48.048;7.724;2023-06-26T07:32:02;7.13;;;6.63;;
34928;SDS011;21133;48.048;7.724;2023-06-26T07:34:28;5.30;;;4.90;;
34928;SDS011;21133;48.048;7.724;2023-06-26T07:36:53;5.27;;;4.87;;
34928;SDS011;21133;48.048;7.724;2023-06-26T07:39:19;5.37;;;5.00;;
34928;SDS011;21133;48.048;7.724;2023-06-26T07:41:45;5.70;;;5.40;;
34928;SDS011;21133;48.048;7.724;2023-06-26T07:44:11;10.23;;;4.93;;
34928;SDS011;21133;48.048;7.724;2023-06-26T07:46:37;5.37;;;4.90;;
34928;SDS011;21133;48.048;7.724;2023-06-26T07:49:04;6.00;;;4.87;;
34928;SDS011;21133;48.048;7.724;2023-06-26T07:51:30;7.47;;;5.70;;
34928;SDS011;21133;48.048;7.724;2023-06-26T07:53:56;5.20;;;4.90;;
34928;SDS011;21133;48.048;7.724;2023-06-26T07:56:22;6.37;;;5.97;;
34928;SDS011;21133;48.048;7.724;2023-06-26T07:58:47;4.87;;;4.57;;
34928;SDS011;21133;48.048;7.724;2023-06-26T08:01:13;6.20;;;4.93;;
34928;SDS011;21133;48.048;7.724;2023-06-26T08:03:39;5.33;;;5.03;;
34928;SDS011;21133;48.048;7.724;2023-06-26T08:06:06;7.23;;;6.27;;
34928;SDS011;21133;48.048;7.724;2023-06-26T08:08:32;11.30;;;5.57;;
34928;SDS011;21133;48.048;7.724;2023-06-26T08:10:58;6.30;;;4.30;;
34928;SDS011;21133;48.048;7.724;2023-06-26T08:13:24;6.27;;;5.60;;
34928;SDS011;21133;48.048;7.724;2023-06-26T08:15:50;8.00;;;5.90;;
34928;SDS011;21133;48.048;7.724;2023-06-26T08:18:17;7.43;;;6.37;;
34928;SDS011;21133;48.048;7.724;2023-06-26T08:20:43;5.90;;;5.40;;
34928;SDS011;21133;48.048;7.724;2023-06-26T08:23:09;17.17;;;5.37;;
34928;SDS011;21133;48.048;7.724;2023-06-26T08:25:35;6.23;;;5.83;;
34928;SDS011;21133;48.048;7.724;2023-06-26T08:28:01;5.23;;;4.90;;
34928;SDS011;21133;48.048;7.724;2023-06-26T08:30:27;6.20;;;5.57;;
34928;SDS011;21133;48.048;7.724;2023-06-26T08:32:56;9.00;;;5.50;;
34928;SDS011;21133;48.048;7.724;2023-06-26T08:35:22;16.90;;;6.00;;
34928;SDS011;21133;48.048;7.724;2023-06-26T08:37:48;5.90;;;5.50;;
34928;SDS011;21133;48.048;7.724;2023-06-26T08:40:16;8.70;;;5.77;;
34928;SDS011;21133;48.048;7.724;2023-06-26T08:42:43;5.50;;;5.30;;
34928;SDS011;21133;48.048;7.724;2023-06-26T08:45:10;6.37;;;5.77;;
34928;SDS011;21133;48.048;7.724;2023-06-26T08:47:36;6.70;;;6.10;;
34928;SDS011;21133;48.048;7.724;2023-06-26T08:50:12;6.70;;;5.87;;
34928;SDS011;21133;48.048;7.724;2023-06-26T08:52:56;5.10;;;4.77;;
34928;SDS011;21133;48.048;7.724;2023-06-26T08:55:23;9.33;;;6.07;;
34928;SDS011;21133;48.048;7.724;2023-06-26T08:57:51;6.40;;;5.60;;
34928;SDS011;21133;48.048;7.724;2023-06-26T09:00:18;17.90;;;6.20;;
34928;SDS011;21133;48.048;7.724;2023-06-26T09:02:45;5.50;;;5.20;;
34928;SDS011;21133;48.048;7.724;2023-06-26T09:05:11;5.20;;;4.90;;
34928;SDS011;21133;48.048;7.724;2023-06-26T09:07:37;6.33;;;5.93;;
34928;SDS011;21133;48.048;7.724;2023-06-26T09:10:03;5.77;;;5.27;;
34928;SDS011;21133;48.048;7.724;2023-06-26T09:12:29;14.43;;;6.07;;
34928;SDS011;21133;48.048;7.724;2023-06-26T09:14:56;5.23;;;4.93;;
34928;SDS011;21133;48.048;7.724;2023-06-26T09:17:28;5.50;;;5.20;;
34928;SDS011;21133;48.048;7.724;2023-06-26T09:19:54;5.40;;;5.20;;
34928;SDS011;21133;48.048;7.724;2023-06-26T09:22:20;6.23;;;5.70;;
34928;SDS011;21133;48.048;7.724;2023-06-26T09:24:47;5.80;;;5.50;;
34928;SDS011;21133;48.048;7.724;2023-06-26T09:27:13;5.60;;;5.30;;
34928;SDS011;21133;48.048;7.724;2023-06-26T09:29:39;5.93;;;5.30;;
34928;SDS011;21133;48.048;7.724;2023-06-26T09:32:07;7.80;;;5.00;;
34928;SDS011;21133;48.048;7.724;2023-06-26T09:34:33;5.73;;;5.33;;
34928;SDS011;21133;48.048;7.724;2023-06-26T09:36:59;6.27;;;5.87;;
34928;SDS011;21133;48.048;7.724;2023-06-26T09:39:30;6.27;;;5.97;;
34928;SDS011;21133;48.048;7.724;2023-06-26T09:41:56;6.63;;;6.30;;
34928;SDS011;21133;48.048;7.724;2023-06-26T09:44:22;5.80;;;5.30;;
34928;SDS011;21133;48.048;7.724;2023-06-26T09:46:48;5.60;;;5.30;;
34928;SDS011;21133;48.048;7.724;2023-06-26T09:49:15;6.43;;;6.07;;
34928;SDS011;21133;48.048;7.724;2023-06-26T09:51:41;6.53;;;6.00;;
34928;SDS011;21133;48.048;7.724;2023-06-26T09:54:08;6.23;;;5.77;;
34928;SDS011;21133;48.048;7.724;2023-06-26T09:56:37;6.70;;;6.20;;
34928;SDS011;21133;48.048;7.724;2023-06-26T09:59:03;6.17;;;5.67;;
34928;SDS011;21133;48.048;7.724;2023-06-26T10:01:30;6.17;;;5.87;;
34928;SDS011;21133;48.048;7.724;2023-06-26T10:03:56;6.63;;;6.10;;
34928;SDS011;21133;48.048;7.724;2023-06-26T10:08:51;18.63;;;6.27;;
34928;SDS011;21133;48.048;7.724;2023-06-26T10:11:19;5.90;;;5.50;;
34928;SDS011;21133;48.048;7.724;2023-06-26T10:13:45;13.77;;;5.60;;
34928;SDS011;21133;48.048;7.724;2023-06-26T10:16:14;7.80;;;5.90;;
34928;SDS011;21133;48.048;7.724;2023-06-26T10:18:43;6.30;;;5.93;;
34928;SDS011;21133;48.048;7.724;2023-06-26T10:21:10;7.80;;;5.77;;
34928;SDS011;21133;48.048;7.724;2023-06-26T10:23:37;5.77;;;5.40;;
34928;SDS011;21133;48.048;7.724;2023-06-26T10:26:05;6.27;;;5.87;;
34928;SDS011;21133;48.048;7.724;2023-06-26T10:28:32;6.23;;;5.93;;
34928;SDS011;21133;48.048;7.724;2023-06-26T10:30:59;5.90;;;5.33;;
34928;SDS011;21133;48.048;7.724;2023-06-26T10:33:26;8.17;;;5.13;;
34928;SDS011;21133;48.048;7.724;2023-06-26T10:35:52;5.60;;;5.20;;
34928;SDS011;21133;48.048;7.724;2023-06-26T10:38:18;4.93;;;4.70;;
34928;SDS011;21133;48.048;7.724;2023-06-26T10:40:44;6.50;;;5.90;;
34928;SDS011;21133;48.048;7.724;2023-06-26T10:43:11;7.50;;;7.00;;
34928;SDS011;21133;48.048;7.724;2023-06-26T10:45:47;5.37;;;5.17;;
34928;SDS011;21133;48.048;7.724;2023-06-26T10:48:18;9.07;;;8.40;;
34928;SDS011;21133;48.048;7.724;2023-06-26T10:50:46;6.10;;;5.63;;
34928;SDS011;21133;48.048;7.724;2023-06-26T10:56:05;5.90;;;5.50;;
34928;SDS011;21133;48.048;7.724;2023-06-26T11:03:38;6.03;;;5.67;;
34928;SDS011;21133;48.048;7.724;2023-06-26T11:06:08;7.27;;;6.67;;
34928;SDS011;21133;48.048;7.724;2023-06-26T11:14:15;6.43;;;5.93;;
34928;SDS011;21133;48.048;7.724;2023-06-26T11:16:42;5.40;;;5.20;;
34928;SDS011;21133;48.048;7.724;2023-06-26T11:19:09;10.93;;;5.40;;
34928;SDS011;21133;48.048;7.724;2023-06-26T11:21:36;5.07;;;4.83;;
34928;SDS011;21133;48.048;7.724;2023-06-26T11:24:06;9.20;;;5.83;;
34928;SDS011;21133;48.048;7.724;2023-06-26T11:26:39;6.10;;;5.80;;
34928;SDS011;21133;48.048;7.724;2023-06-26T11:29:05;7.33;;;5.80;;
34928;SDS011;21133;48.048;7.724;2023-06-26T11:33:59;9.67;;;5.10;;
34928;SDS011;21133;48.048;7.724;2023-06-26T11:36:26;6.20;;;5.80;;
34928;SDS011;21133;48.048;7.724;2023-06-26T11:38:52;5.47;;;4.80;;
34928;SDS011;21133;48.048;7.724;2023-06-26T11:41:19;5.80;;;5.50;;
34928;SDS011;21133;48.048;7.724;2023-06-26T11:43:46;5.73;;;4.67;;
34928;SDS011;21133;48.048;7.724;2023-06-26T11:46:12;4.60;;;4.40;;
34928;SDS011;21133;48.048;7.724;2023-06-26T11:48:38;5.97;;;5.60;;
34928;SDS011;21133;48.048;7.724;2023-06-26T11:51:05;6.70;;;4.47;;
34928;SDS011;21133;48.048;7.724;2023-06-26T11:53:31;5.23;;;4.70;;
34928;SDS011;21133;48.048;7.724;2023-06-26T11:55:57;5.63;;;4.60;;
34928;SDS011;21133;48.048;7.724;2023-06-26T11:58:23;8.43;;;4.50;;
34928;SDS011;21133;48.048;7.724;2023-06-26T12:00:50;5.67;;;5.23;;
34928;SDS011;21133;48.048;7.724;2023-06-26T12:03:16;4.90;;;4.57;;
34928;SDS011;21133;48.048;7.724;2023-06-26T12:05:42;6.00;;;5.60;;
34928;SDS011;21133;48.048;7.724;2023-06-26T12:08:10;5.83;;;5.53;;
34928;SDS011;21133;48.048;7.724;2023-06-26T12:10:36;6.13;;;4.30;;
34928;SDS011;21133;48.048;7.724;2023-06-26T12:13:02;12.57;;;4.73;;
34928;SDS011;21133;48.048;7.724;2023-06-26T12:15:28;7.70;;;5.30;;
34928;SDS011;21133;48.048;7.724;2023-06-26T12:17:54;10.60;;;5.00;;
34928;SDS011;21133;48.048;7.724;2023-06-26T12:20:20;5.30;;;4.80;;
34928;SDS011;21133;48.048;7.724;2023-06-26T12:22:47;4.03;;;3.90;;
34928;SDS011;21133;48.048;7.724;2023-06-26T12:25:13;3.83;;;3.73;;
34928;SDS011;21133;48.048;7.724;2023-06-26T12:27:39;4.73;;;4.57;;
34928;SDS011;21133;48.048;7.724;2023-06-26T12:30:06;8.60;;;4.90;;
34928;SDS011;21133;48.048;7.724;2023-06-26T12:32:32;4.53;;;4.13;;
34928;SDS011;21133;48.048;7.724;2023-06-26T12:34:58;4.63;;;4.30;;
34928;SDS011;21133;48.048;7.724;2023-06-26T12:37:24;3.80;;;3.67;;
34928;SDS011;21133;48.048;7.724;2023-06-26T12:39:51;4.53;;;4.33;;
34928;SDS011;21133;48.048;7.724;2023-06-26T12:42:20;3.97;;;3.60;;
34928;SDS011;21133;48.048;7.724;2023-06-26T12:44:46;5.60;;;5.30;;
34928;SDS011;21133;48.048;7.724;2023-06-26T12:47:13;4.00;;;3.70;;
34928;SDS011;21133;48.048;7.724;2023-06-26T12:49:41;3.80;;;3.63;;
34928;SDS011;21133;48.048;7.724;2023-06-26T12:52:08;4.57;;;4.37;;
34928;SDS011;21133;48.048;7.724;2023-06-26T12:54:34;6.00;;;3.60;;
34928;SDS011;21133;48.048;7.724;2023-06-26T12:57:01;10.20;;;3.47;;
34928;SDS011;21133;48.048;7.724;2023-06-26T12:59:28;4.50;;;4.30;;
34928;SDS011;21133;48.048;7.724;2023-06-26T13:01:55;3.80;;;3.60;;
34928;SDS011;21133;48.048;7.724;2023-06-26T13:04:21;4.60;;;4.30;;
34928;SDS011;21133;48.048;7.724;2023-06-26T13:06:47;5.03;;;4.73;;
34928;SDS011;21133;48.048;7.724;2023-06-26T13:09:13;3.50;;;3.40;;
34928;SDS011;21133;48.048;7.724;2023-06-26T13:11:39;3.97;;;3.87;;
34928;SDS011;21133;48.048;7.724;2023-06-26T13:14:05;4.07;;;3.90;;
34928;SDS011;21133;48.048;7.724;2023-06-26T13:16:31;4.03;;;3.60;;
34928;SDS011;21133;48.048;7.724;2023-06-26T13:18:58;5.00;;;4.60;;
34928;SDS011;21133;48.048;7.724;2023-06-26T13:21:24;3.63;;;3.53;;
34928;SDS011;21133;48.048;7.724;2023-06-26T13:23:50;3.37;;;3.17;;
34928;SDS011;21133;48.048;7.724;2023-06-26T13:26:16;3.10;;;3.00;;
34928;SDS011;21133;48.048;7.724;2023-06-26T13:28:42;3.17;;;3.07;;
34928;SDS011;21133;48.048;7.724;2023-06-26T13:31:08;4.00;;;3.63;;
34928;SDS011;21133;48.048;7.724;2023-06-26T13:33:34;4.13;;;3.97;;
34928;SDS011;21133;48.048;7.724;2023-06-26T13:36:00;3.63;;;3.43;;
34928;SDS011;21133;48.048;7.724;2023-06-26T13:38:29;3.50;;;3.30;;
34928;SDS011;21133;48.048;7.724;2023-06-26T13:40:56;8.87;;;3.03;;
34928;SDS011;21133;48.048;7.724;2023-06-26T13:43:23;3.23;;;3.03;;
34928;SDS011;21133;48.048;7.724;2023-06-26T13:45:49;3.27;;;3.17;;
34928;SDS011;21133;48.048;7.724;2023-06-26T13:48:15;3.77;;;3.67;;
34928;SDS011;21133;48.048;7.724;2023-06-26T13:50:41;4.33;;;2.83;;
34928;SDS011;21133;48.048;7.724;2023-06-26T13:53:07;3.50;;;3.30;;
34928;SDS011;21133;48.048;7.724;2023-06-26T13:55:34;2.83;;;2.67;;
34928;SDS011;21133;48.048;7.724;2023-06-26T13:58:00;3.10;;;3.00;;
34928;SDS011;21133;48.048;7.724;2023-06-26T14:00:30;2.90;;;2.80;;
34928;SDS011;21133;48.048;7.724;2023-06-26T14:02:56;2.60;;;2.50;;
34928;SDS011;21133;48.048;7.724;2023-06-26T14:05:22;2.43;;;2.33;;
34928;SDS011;21133;48.048;7.724;2023-06-26T14:07:48;3.77;;;3.40;;
34928;SDS011;21133;48.048;7.724;2023-06-26T14:10:14;9.53;;;2.47;;
34928;SDS011;21133;48.048;7.724;2023-06-26T14:12:40;2.80;;;2.67;;
34928;SDS011;21133;48.048;7.724;2023-06-26T14:15:07;2.73;;;2.70;;
34928;SDS011;21133;48.048;7.724;2023-06-26T14:17:33;2.93;;;2.67;;
34928;SDS011;21133;48.048;7.724;2023-06-26T14:19:59;2.70;;;2.50;;
34928;SDS011;21133;48.048;7.724;2023-06-26T14:22:25;13.57;;;3.27;;
34928;SDS011;21133;48.048;7.724;2023-06-26T14:24:51;2.60;;;2.50;;
34928;SDS011;21133;48.048;7.724;2023-06-26T14:27:17;3.23;;;2.97;;
34928;SDS011;21133;48.048;7.724;2023-06-26T14:29:43;3.47;;;3.37;;
34928;SDS011;21133;48.048;7.724;2023-06-26T14:32:09;3.47;;;3.27;;
34928;SDS011;21133;48.048;7.724;2023-06-26T14:34:35;3.03;;;2.83;;
34928;SDS011;21133;48.048;7.724;2023-06-26T14:37:01;7.60;;;3.63;;
34928;SDS011;21133;48.048;7.724;2023-06-26T14:39:27;3.30;;;3.10;;
34928;SDS011;21133;48.048;7.724;2023-06-26T14:41:53;3.10;;;2.97;;
34928;SDS011;21133;48.048;7.724;2023-06-26T14:44:19;3.70;;;3.47;;
34928;SDS011;21133;48.048;7.724;2023-06-26T14:46:45;3.97;;;3.73;;
34928;SDS011;21133;48.048;7.724;2023-06-26T14:49:11;2.30;;;2.30;;
34928;SDS011;21133;48.048;7.724;2023-06-26T14:51:38;5.37;;;3.67;;
34928;SDS011;21133;48.048;7.724;2023-06-26T14:54:05;3.70;;;3.50;;
34928;SDS011;21133;48.048;7.724;2023-06-26T14:56:31;3.50;;;3.20;;
34928;SDS011;21133;48.048;7.724;2023-06-26T14:58:57;3.70;;;3.50;;
34928;SDS011;21133;48.048;7.724;2023-06-26T15:01:23;3.40;;;3.10;;
34928;SDS011;21133;48.048;7.724;2023-06-26T15:03:49;7.60;;;3.63;;
34928;SDS011;21133;48.048;7.724;2023-06-26T15:06:15;7.30;;;3.83;;